createdAt,value
2019-01-04T00:05:32.661Z,10.63
2019-01-04T00:11:36.872Z,11.50
2019-01-04T00:17:41.228Z,10.40
2019-01-04T00:23:45.482Z,8.70
2019-01-04T00:29:49.884Z,9.07
2019-01-04T00:35:54.172Z,9.30
2019-01-04T00:41:58.384Z,10.23
2019-01-04T00:48:02.593Z,10.20
2019-01-04T00:54:06.980Z,10.03
2019-01-04T01:01:10.070Z,9.83
2019-01-04T01:07:52.667Z,10.03
2019-01-04T01:14:36.516Z,10.50
2019-01-04T01:21:16.375Z,10.37
2019-01-04T01:28:10.495Z,11.00
2019-01-04T01:35:02.131Z,10.43
2019-01-04T01:41:42.887Z,9.50
2019-01-04T01:48:08.561Z,7.80
2019-01-04T01:54:12.759Z,7.97
2019-01-04T02:00:17.015Z,7.77
2019-01-04T02:06:21.213Z,8.23
2019-01-04T02:12:25.408Z,8.37
2019-01-04T02:18:29.719Z,7.80
2019-01-04T02:24:33.905Z,7.90
2019-01-04T02:30:38.343Z,8.43
2019-01-04T02:36:42.521Z,8.20
2019-01-04T02:42:46.824Z,7.50
2019-01-04T02:48:51.071Z,7.77
2019-01-04T02:54:55.330Z,6.87
2019-01-04T03:00:59.622Z,7.67
2019-01-04T03:07:04.329Z,7.07
2019-01-04T03:13:08.543Z,7.80
2019-01-04T03:19:12.733Z,7.67
2019-01-04T03:25:16.986Z,8.33
2019-01-04T03:31:21.189Z,8.80
2019-01-04T03:37:25.446Z,9.37
2019-01-04T03:43:29.652Z,9.17
2019-01-04T03:49:33.868Z,8.07
2019-01-04T03:55:38.156Z,8.27
2019-01-04T04:01:42.426Z,8.37
2019-01-04T04:07:46.658Z,9.07
2019-01-04T04:13:50.853Z,9.60
2019-01-04T04:19:55.355Z,9.37
2019-01-04T04:25:59.552Z,9.30
2019-01-04T04:32:03.840Z,9.10
2019-01-04T04:38:08.114Z,9.40
2019-01-04T04:44:12.355Z,9.10
2019-01-04T04:50:16.661Z,9.07
2019-01-04T04:56:20.928Z,7.97
2019-01-04T05:02:25.135Z,6.33
2019-01-04T05:08:29.619Z,6.70
2019-01-04T05:14:33.803Z,6.00
2019-01-04T05:20:38.043Z,6.53
2019-01-04T05:26:42.232Z,7.13
2019-01-04T05:32:49.533Z,5.53
2019-01-04T05:38:53.715Z,13.23
2019-01-04T05:44:58.161Z,6.90
2019-01-04T05:51:02.354Z,6.97
2019-01-04T05:57:06.611Z,7.07
2019-01-04T06:03:10.807Z,7.50
2019-01-04T06:09:15.237Z,7.73
2019-01-04T06:15:19.420Z,9.03
2019-01-04T06:21:23.759Z,8.70
2019-01-04T06:27:27.943Z,8.13
2019-01-04T06:33:32.282Z,9.80
2019-01-04T06:39:36.476Z,10.70
2019-01-04T06:45:40.875Z,13.50
2019-01-04T06:51:45.084Z,14.53
2019-01-04T06:57:49.396Z,16.00
2019-01-04T07:03:53.630Z,16.20
2019-01-04T07:10:00.943Z,14.90
2019-01-04T07:16:05.198Z,15.70
2019-01-04T07:22:09.542Z,15.10
2019-01-04T07:28:13.800Z,14.43
2019-01-04T07:34:18.244Z,12.53
2019-01-04T07:40:22.476Z,12.97
2019-01-04T07:46:26.642Z,11.90
2019-01-04T07:52:30.839Z,12.83
2019-01-04T07:58:35.151Z,11.47
2019-01-04T08:04:39.308Z,11.20
2019-01-04T08:10:43.655Z,11.00
2019-01-04T08:16:47.870Z,11.30
2019-01-04T08:22:52.247Z,11.70
2019-01-04T08:28:56.443Z,11.80
2019-01-04T08:35:00.850Z,11.87
2019-01-04T08:41:05.023Z,17.37
2019-01-04T08:47:09.315Z,13.80
2019-01-04T08:53:13.515Z,13.37
2019-01-04T08:59:17.941Z,11.60
2019-01-04T09:05:22.173Z,12.93
2019-01-04T09:11:26.392Z,13.70
2019-01-04T09:17:30.579Z,14.47
2019-01-04T09:23:34.963Z,14.97
2019-01-04T09:29:39.143Z,17.30
2019-01-04T09:35:43.594Z,17.67
2019-01-04T09:42:13.768Z,18.57
2019-01-04T09:48:17.957Z,18.73
2019-01-04T09:54:22.184Z,19.87
2019-01-04T10:00:26.564Z,18.60
2019-01-04T10:06:30.802Z,19.43
2019-01-04T10:12:34.992Z,19.43
2019-01-04T10:18:39.295Z,20.83
2019-01-04T10:24:43.490Z,21.30
2019-01-04T10:30:47.911Z,30.43
2019-01-04T10:36:52.160Z,24.83
2019-01-04T10:42:56.434Z,25.93
2019-01-04T10:49:00.612Z,26.13
2019-01-04T10:55:05.290Z,25.57
2019-01-04T11:01:09.480Z,25.67
2019-01-04T11:07:13.662Z,25.80
2019-01-04T11:13:17.953Z,26.60
2019-01-04T11:19:22.149Z,28.23
2019-01-04T11:26:12.192Z,25.83
2019-01-04T11:32:51.208Z,20.60
2019-01-04T11:39:35.444Z,23.53
2019-01-04T11:46:05.108Z,24.17
2019-01-04T11:52:39.159Z,23.80
2019-01-04T11:58:43.367Z,27.37
2019-01-04T12:04:47.559Z,26.67
2019-01-04T12:10:51.804Z,22.97
2019-01-04T12:16:56.029Z,25.50
2019-01-04T12:23:00.327Z,25.77
2019-01-04T12:29:04.540Z,24.67
2019-01-04T12:35:09.007Z,23.47
2019-01-04T12:41:13.180Z,30.83
2019-01-04T12:47:17.526Z,15.77
2019-01-04T12:53:21.761Z,21.20
2019-01-04T12:59:26.097Z,18.90
2019-01-04T13:05:30.290Z,17.67
2019-01-04T13:11:34.663Z,19.23
2019-01-04T13:17:38.825Z,19.10
2019-01-04T13:23:43.081Z,18.33
2019-01-04T13:29:47.266Z,21.77
2019-01-04T13:35:51.727Z,22.83
2019-01-04T13:41:55.923Z,24.30
2019-01-04T13:48:00.235Z,25.00
2019-01-04T13:54:04.726Z,25.17
2019-01-04T14:00:09.788Z,24.83
2019-01-04T14:06:13.985Z,17.87
2019-01-04T14:12:18.452Z,23.50
2019-01-04T14:18:22.640Z,25.33
2019-01-04T14:24:27.070Z,23.27
2019-01-04T14:30:32.064Z,23.53
2019-01-04T14:36:37.632Z,22.83
2019-01-04T14:42:41.842Z,21.57
2019-01-04T14:48:46.093Z,21.83
2019-01-04T14:54:50.272Z,18.10
2019-01-04T15:00:54.518Z,18.30
2019-01-04T15:06:58.742Z,16.70
2019-01-04T15:13:03.062Z,17.10
2019-01-04T15:19:07.259Z,16.23
2019-01-04T15:25:11.587Z,16.07
2019-01-04T15:31:15.758Z,16.03
2019-01-04T15:37:20.462Z,15.93
2019-01-04T15:43:24.657Z,15.73
2019-01-04T15:49:28.959Z,15.33
2019-01-04T15:55:33.133Z,16.73
2019-01-04T16:01:37.417Z,18.67
2019-01-04T16:07:41.625Z,16.60
2019-01-04T16:13:45.859Z,16.93
2019-01-04T16:19:50.027Z,15.53
2019-01-04T16:25:54.391Z,17.40
2019-01-04T16:31:58.595Z,18.20
2019-01-04T16:38:02.902Z,19.47
2019-01-04T16:44:07.332Z,17.87
2019-01-04T16:50:11.649Z,19.30
2019-01-04T16:56:15.962Z,23.20
2019-01-04T17:02:20.172Z,21.13
2019-01-04T17:08:24.379Z,20.33
2019-01-04T17:14:28.613Z,19.83
2019-01-04T17:20:32.875Z,19.70
2019-01-04T17:26:37.209Z,22.07
2019-01-04T17:32:41.403Z,21.30
2019-01-04T17:38:45.662Z,23.43
2019-01-04T17:44:49.830Z,22.03
2019-01-04T17:50:54.003Z,22.53
2019-01-04T17:56:58.256Z,19.53
2019-01-04T18:03:02.457Z,20.50
2019-01-04T18:09:08.145Z,23.20
2019-01-04T18:15:12.351Z,21.70
2019-01-04T18:21:16.542Z,19.60
2019-01-04T18:27:20.856Z,18.97
2019-01-04T18:33:25.101Z,19.13
2019-01-04T18:39:29.398Z,19.47
2019-01-04T18:45:33.697Z,23.67
2019-01-04T18:51:37.900Z,25.40
2019-01-04T18:57:42.074Z,23.73
2019-01-04T19:03:46.274Z,19.57
2019-01-04T19:09:50.461Z,21.30
2019-01-04T19:15:54.788Z,21.20
2019-01-04T19:21:59.008Z,21.27
2019-01-04T19:28:03.191Z,21.40
2019-01-04T19:34:07.528Z,21.30
2019-01-04T19:40:11.765Z,22.20
2019-01-04T19:46:16.026Z,23.67
2019-01-04T19:52:20.202Z,24.77
2019-01-04T19:58:24.606Z,28.07
2019-01-04T20:04:28.838Z,24.53
2019-01-04T20:11:29.653Z,26.17
2019-01-04T20:18:05.239Z,24.13
2019-01-04T20:24:24.013Z,24.43
2019-01-04T20:31:05.433Z,22.77
2019-01-04T20:37:27.057Z,24.13
2019-01-04T20:44:05.201Z,22.77
2019-01-04T20:50:27.076Z,22.17
2019-01-04T20:56:57.566Z,20.97
2019-01-04T21:03:35.963Z,21.07
2019-01-04T21:10:01.768Z,19.23
2019-01-04T21:16:25.016Z,20.13
2019-01-04T21:22:40.751Z,20.27
2019-01-04T21:29:10.834Z,19.30
2019-01-04T21:35:42.864Z,20.00
2019-01-04T21:42:04.744Z,20.07
2019-01-04T21:48:38.577Z,19.87
2019-01-04T21:55:00.576Z,20.13
2019-01-04T22:01:22.200Z,19.57
2019-01-04T22:07:48.662Z,19.90
2019-01-04T22:14:10.273Z,21.80
2019-01-04T22:20:37.730Z,22.07
2019-01-04T22:27:03.816Z,22.17
2019-01-04T22:33:25.471Z,22.10
2019-01-04T22:39:48.718Z,22.70
2019-01-04T22:46:11.942Z,22.83
2019-01-04T22:52:24.300Z,22.20
2019-01-04T22:58:47.517Z,22.30
2019-01-04T23:05:25.853Z,21.87
2019-01-04T23:11:50.603Z,23.30
2019-01-04T23:18:13.839Z,22.47
2019-01-04T23:24:42.873Z,22.53
2019-01-04T23:31:10.837Z,22.30
2019-01-04T23:37:37.187Z,22.80
2019-01-04T23:44:09.270Z,21.27
2019-01-04T23:50:31.204Z,22.43
2019-01-04T23:56:52.898Z,23.30
